Algernon, Nebraska
Current Conditions -  °F | °C
As of 1:53 AM on Sunday 26 Oct 2014 (Local Time) from KBBW Reporting Station
Clear Clear  
Wind Chill: 50°   Ceiling: Unl
Heat Index: 50°   Visibility: 10mi
Dew Point: 41°   Wind: 6mph
Humidity: 71%   Direction: 130°SE
Pressure: 29.9"   Gusts: NA
Location:  41.1632°N, 99.3112°W
Report Text: KBBW 260653Z AUTO 13005KT 10SM CLR 10/05 A2990 RMK AO2 SLP113 T01000050
Loading
Personal Weather Stations






























Interactive Weather Map New forecast layout! Learn more

10-Day Weather Forecast

Advertisements
Track Severe Weather on mobile